sensor_id;sensor_type;location;lat;lon;timestamp;P1;durP1;ratioP1;P2;durP2;ratioP2
46897;SDS011;32646;50.958;6.258;2023-07-13T00:00:56;4.05;;;0.88;;
46897;SDS011;32646;50.958;6.258;2023-07-13T00:03:22;3.00;;;0.95;;
46897;SDS011;32646;50.958;6.258;2023-07-13T00:05:57;5.28;;;1.08;;
46897;SDS011;32646;50.958;6.258;2023-07-13T00:08:29;3.20;;;0.88;;
46897;SDS011;32646;50.958;6.258;2023-07-13T00:10:57;3.33;;;0.82;;
46897;SDS011;32646;50.958;6.258;2023-07-13T00:13:23;3.83;;;0.90;;
46897;SDS011;32646;50.958;6.258;2023-07-13T00:15:50;3.28;;;1.00;;
46897;SDS011;32646;50.958;6.258;2023-07-13T00:18:17;2.10;;;0.85;;
46897;SDS011;32646;50.958;6.258;2023-07-13T00:20:43;4.75;;;0.93;;
46897;SDS011;32646;50.958;6.258;2023-07-13T00:23:10;3.60;;;1.05;;
46897;SDS011;32646;50.958;6.258;2023-07-13T00:25:36;3.63;;;0.93;;
46897;SDS011;32646;50.958;6.258;2023-07-13T00:28:03;3.20;;;0.88;;
46897;SDS011;32646;50.958;6.258;2023-07-13T00:30:29;5.13;;;1.02;;
46897;SDS011;32646;50.958;6.258;2023-07-13T00:32:56;3.78;;;0.80;;
46897;SDS011;32646;50.958;6.258;2023-07-13T00:35:42;4.03;;;1.02;;
46897;SDS011;32646;50.958;6.258;2023-07-13T00:38:10;3.13;;;0.80;;
46897;SDS011;32646;50.958;6.258;2023-07-13T00:40:37;3.03;;;0.82;;
46897;SDS011;32646;50.958;6.258;2023-07-13T00:43:05;2.97;;;0.90;;
46897;SDS011;32646;50.958;6.258;2023-07-13T00:48:10;3.95;;;0.90;;
46897;SDS011;32646;50.958;6.258;2023-07-13T00:50:40;4.03;;;1.02;;
46897;SDS011;32646;50.958;6.258;2023-07-13T00:53:07;3.95;;;0.98;;
46897;SDS011;32646;50.958;6.258;2023-07-13T00:55:35;1.75;;;0.65;;
46897;SDS011;32646;50.958;6.258;2023-07-13T00:58:02;3.08;;;0.90;;
46897;SDS011;32646;50.958;6.258;2023-07-13T01:00:29;4.88;;;0.90;;
46897;SDS011;32646;50.958;6.258;2023-07-13T01:02:56;3.38;;;1.00;;
46897;SDS011;32646;50.958;6.258;2023-07-13T01:05:25;6.15;;;1.10;;
46897;SDS011;32646;50.958;6.258;2023-07-13T01:07:51;2.45;;;0.90;;
46897;SDS011;32646;50.958;6.258;2023-07-13T01:10:22;3.88;;;0.80;;
46897;SDS011;32646;50.958;6.258;2023-07-13T01:12:49;4.28;;;1.23;;
46897;SDS011;32646;50.958;6.258;2023-07-13T01:18:10;2.72;;;0.98;;
46897;SDS011;32646;50.958;6.258;2023-07-13T01:20:39;2.55;;;0.90;;
46897;SDS011;32646;50.958;6.258;2023-07-13T01:23:07;3.90;;;1.00;;
46897;SDS011;32646;50.958;6.258;2023-07-13T01:25:37;3.10;;;0.77;;
46897;SDS011;32646;50.958;6.258;2023-07-13T01:28:04;3.40;;;1.00;;
46897;SDS011;32646;50.958;6.258;2023-07-13T01:30:32;3.00;;;1.13;;
46897;SDS011;32646;50.958;6.258;2023-07-13T01:32:59;5.28;;;1.77;;
46897;SDS011;32646;50.958;6.258;2023-07-13T01:35:26;4.82;;;1.35;;
46897;SDS011;32646;50.958;6.258;2023-07-13T01:37:52;2.65;;;1.00;;
46897;SDS011;32646;50.958;6.258;2023-07-13T01:40:20;7.28;;;1.00;;
46897;SDS011;32646;50.958;6.258;2023-07-13T01:42:47;2.22;;;0.70;;
46897;SDS011;32646;50.958;6.258;2023-07-13T01:45:13;5.03;;;0.90;;
46897;SDS011;32646;50.958;6.258;2023-07-13T01:47:40;4.82;;;0.82;;
46897;SDS011;32646;50.958;6.258;2023-07-13T01:50:07;2.08;;;0.80;;
46897;SDS011;32646;50.958;6.258;2023-07-13T01:52:34;3.88;;;0.90;;
46897;SDS011;32646;50.958;6.258;2023-07-13T01:55:00;3.65;;;1.10;;
46897;SDS011;32646;50.958;6.258;2023-07-13T01:57:27;3.22;;;1.05;;
46897;SDS011;32646;50.958;6.258;2023-07-13T01:59:54;2.30;;;0.88;;
46897;SDS011;32646;50.958;6.258;2023-07-13T02:02:20;3.45;;;1.00;;
46897;SDS011;32646;50.958;6.258;2023-07-13T02:04:47;3.97;;;0.98;;
46897;SDS011;32646;50.958;6.258;2023-07-13T02:07:14;2.83;;;0.82;;
46897;SDS011;32646;50.958;6.258;2023-07-13T02:09:40;2.90;;;0.77;;
46897;SDS011;32646;50.958;6.258;2023-07-13T02:12:07;4.13;;;1.33;;
46897;SDS011;32646;50.958;6.258;2023-07-13T02:14:34;5.78;;;1.23;;
46897;SDS011;32646;50.958;6.258;2023-07-13T02:17:01;2.67;;;1.02;;
46897;SDS011;32646;50.958;6.258;2023-07-13T02:19:27;3.05;;;1.10;;
46897;SDS011;32646;50.958;6.258;2023-07-13T02:21:54;4.00;;;1.13;;
46897;SDS011;32646;50.958;6.258;2023-07-13T02:24:21;7.90;;;1.20;;
46897;SDS011;32646;50.958;6.258;2023-07-13T02:26:47;7.20;;;1.15;;
46897;SDS011;32646;50.958;6.258;2023-07-13T02:29:14;5.10;;;1.40;;
46897;SDS011;32646;50.958;6.258;2023-07-13T02:31:41;5.38;;;1.52;;
46897;SDS011;32646;50.958;6.258;2023-07-13T02:34:07;2.75;;;0.90;;
46897;SDS011;32646;50.958;6.258;2023-07-13T02:36:34;4.70;;;0.93;;
46897;SDS011;32646;50.958;6.258;2023-07-13T02:39:01;3.25;;;1.00;;
46897;SDS011;32646;50.958;6.258;2023-07-13T02:41:30;2.22;;;0.80;;
46897;SDS011;32646;50.958;6.258;2023-07-13T02:43:57;3.03;;;1.15;;
46897;SDS011;32646;50.958;6.258;2023-07-13T02:46:25;4.85;;;0.95;;
46897;SDS011;32646;50.958;6.258;2023-07-13T02:48:51;3.85;;;0.90;;
46897;SDS011;32646;50.958;6.258;2023-07-13T02:51:18;3.60;;;1.00;;
46897;SDS011;32646;50.958;6.258;2023-07-13T02:53:44;3.22;;;1.00;;
46897;SDS011;32646;50.958;6.258;2023-07-13T02:56:11;4.97;;;1.50;;
46897;SDS011;32646;50.958;6.258;2023-07-13T02:58:42;4.00;;;1.08;;
46897;SDS011;32646;50.958;6.258;2023-07-13T03:01:09;6.00;;;1.70;;
46897;SDS011;32646;50.958;6.258;2023-07-13T03:03:37;3.75;;;0.98;;
46897;SDS011;32646;50.958;6.258;2023-07-13T03:06:04;3.17;;;0.88;;
46897;SDS011;32646;50.958;6.258;2023-07-13T03:08:31;4.28;;;1.08;;
46897;SDS011;32646;50.958;6.258;2023-07-13T03:11:01;2.63;;;1.00;;
46897;SDS011;32646;50.958;6.258;2023-07-13T03:13:29;2.83;;;1.05;;
46897;SDS011;32646;50.958;6.258;2023-07-13T03:15:56;6.60;;;1.30;;
46897;SDS011;32646;50.958;6.258;2023-07-13T03:18:23;6.32;;;1.35;;
46897;SDS011;32646;50.958;6.258;2023-07-13T03:20:50;4.05;;;1.13;;
46897;SDS011;32646;50.958;6.258;2023-07-13T03:23:17;2.92;;;1.17;;
46897;SDS011;32646;50.958;6.258;2023-07-13T03:25:43;3.30;;;1.13;;
46897;SDS011;32646;50.958;6.258;2023-07-13T03:28:10;4.70;;;1.13;;
46897;SDS011;32646;50.958;6.258;2023-07-13T03:30:37;3.58;;;1.10;;
46897;SDS011;32646;50.958;6.258;2023-07-13T03:33:04;6.43;;;1.38;;
46897;SDS011;32646;50.958;6.258;2023-07-13T03:35:34;3.90;;;1.25;;
46897;SDS011;32646;50.958;6.258;2023-07-13T03:38:01;5.18;;;1.08;;
46897;SDS011;32646;50.958;6.258;2023-07-13T03:40:27;6.03;;;1.20;;
46897;SDS011;32646;50.958;6.258;2023-07-13T03:42:54;5.60;;;1.23;;
46897;SDS011;32646;50.958;6.258;2023-07-13T03:45:20;4.90;;;1.73;;
46897;SDS011;32646;50.958;6.258;2023-07-13T03:47:47;1.67;;;0.70;;
46897;SDS011;32646;50.958;6.258;2023-07-13T03:50:14;3.60;;;1.10;;
46897;SDS011;32646;50.958;6.258;2023-07-13T03:52:40;2.88;;;1.17;;
46897;SDS011;32646;50.958;6.258;2023-07-13T03:55:07;3.85;;;1.40;;
46897;SDS011;32646;50.958;6.258;2023-07-13T03:57:34;3.17;;;1.02;;
46897;SDS011;32646;50.958;6.258;2023-07-13T04:00:03;4.65;;;1.50;;
46897;SDS011;32646;50.958;6.258;2023-07-13T04:02:30;4.50;;;1.30;;
46897;SDS011;32646;50.958;6.258;2023-07-13T04:04:57;3.83;;;1.17;;
46897;SDS011;32646;50.958;6.258;2023-07-13T04:07:23;5.63;;;1.00;;
46897;SDS011;32646;50.958;6.258;2023-07-13T04:09:50;6.13;;;1.80;;
46897;SDS011;32646;50.958;6.258;2023-07-13T04:12:16;4.53;;;1.00;;
46897;SDS011;32646;50.958;6.258;2023-07-13T04:14:43;2.88;;;1.30;;
46897;SDS011;32646;50.958;6.258;2023-07-13T04:17:09;5.55;;;1.40;;
46897;SDS011;32646;50.958;6.258;2023-07-13T04:19:36;6.80;;;1.10;;
46897;SDS011;32646;50.958;6.258;2023-07-13T04:22:03;4.15;;;1.17;;
46897;SDS011;32646;50.958;6.258;2023-07-13T04:24:29;5.25;;;0.90;;
46897;SDS011;32646;50.958;6.258;2023-07-13T04:26:56;4.15;;;0.88;;
46897;SDS011;32646;50.958;6.258;2023-07-13T04:29:23;6.40;;;1.13;;
46897;SDS011;32646;50.958;6.258;2023-07-13T04:31:49;5.47;;;1.33;;
46897;SDS011;32646;50.958;6.258;2023-07-13T04:34:16;4.00;;;1.05;;
46897;SDS011;32646;50.958;6.258;2023-07-13T04:36:42;5.40;;;1.25;;
46897;SDS011;32646;50.958;6.258;2023-07-13T04:39:09;5.22;;;0.98;;
46897;SDS011;32646;50.958;6.258;2023-07-13T04:41:35;3.33;;;1.15;;
46897;SDS011;32646;50.958;6.258;2023-07-13T04:44:02;5.22;;;1.27;;
46897;SDS011;32646;50.958;6.258;2023-07-13T04:46:29;3.25;;;0.93;;
46897;SDS011;32646;50.958;6.258;2023-07-13T04:48:55;4.65;;;1.00;;
46897;SDS011;32646;50.958;6.258;2023-07-13T04:51:22;8.95;;;1.60;;
46897;SDS011;32646;50.958;6.258;2023-07-13T04:53:49;3.88;;;1.27;;
46897;SDS011;32646;50.958;6.258;2023-07-13T04:56:21;5.72;;;2.03;;
46897;SDS011;32646;50.958;6.258;2023-07-13T04:58:48;5.15;;;1.10;;
46897;SDS011;32646;50.958;6.258;2023-07-13T05:01:14;5.32;;;1.10;;
46897;SDS011;32646;50.958;6.258;2023-07-13T05:03:41;3.50;;;1.02;;
46897;SDS011;32646;50.958;6.258;2023-07-13T05:06:08;7.13;;;1.20;;
46897;SDS011;32646;50.958;6.258;2023-07-13T05:08:35;3.38;;;1.17;;
46897;SDS011;32646;50.958;6.258;2023-07-13T05:11:03;2.60;;;0.95;;
46897;SDS011;32646;50.958;6.258;2023-07-13T05:13:30;6.68;;;1.48;;
46897;SDS011;32646;50.958;6.258;2023-07-13T05:15:57;4.30;;;1.30;;
46897;SDS011;32646;50.958;6.258;2023-07-13T05:18:25;4.95;;;1.40;;
46897;SDS011;32646;50.958;6.258;2023-07-13T05:21:02;3.25;;;1.08;;
46897;SDS011;32646;50.958;6.258;2023-07-13T05:23:31;5.45;;;1.02;;
46897;SDS011;32646;50.958;6.258;2023-07-13T05:25:59;5.30;;;1.45;;
46897;SDS011;32646;50.958;6.258;2023-07-13T05:28:26;4.53;;;1.42;;
46897;SDS011;32646;50.958;6.258;2023-07-13T05:30:55;5.00;;;1.40;;
46897;SDS011;32646;50.958;6.258;2023-07-13T05:33:21;5.70;;;1.10;;
46897;SDS011;32646;50.958;6.258;2023-07-13T05:35:48;4.90;;;1.27;;
46897;SDS011;32646;50.958;6.258;2023-07-13T05:38:15;6.35;;;1.85;;
46897;SDS011;32646;50.958;6.258;2023-07-13T05:40:42;3.75;;;1.10;;
46897;SDS011;32646;50.958;6.258;2023-07-13T05:43:10;9.70;;;1.70;;
46897;SDS011;32646;50.958;6.258;2023-07-13T05:45:37;5.30;;;1.13;;
46897;SDS011;32646;50.958;6.258;2023-07-13T05:48:04;8.43;;;1.70;;
46897;SDS011;32646;50.958;6.258;2023-07-13T05:50:30;4.63;;;1.65;;
46897;SDS011;32646;50.958;6.258;2023-07-13T05:52:57;4.32;;;1.45;;
46897;SDS011;32646;50.958;6.258;2023-07-13T05:55:24;6.03;;;1.35;;
46897;SDS011;32646;50.958;6.258;2023-07-13T05:57:50;4.40;;;1.33;;
46897;SDS011;32646;50.958;6.258;2023-07-13T06:00:17;3.83;;;1.25;;
46897;SDS011;32646;50.958;6.258;2023-07-13T06:02:44;5.05;;;1.35;;
46897;SDS011;32646;50.958;6.258;2023-07-13T06:05:10;6.70;;;1.70;;
46897;SDS011;32646;50.958;6.258;2023-07-13T06:07:37;5.60;;;1.63;;
46897;SDS011;32646;50.958;6.258;2023-07-13T06:10:04;8.57;;;1.30;;
46897;SDS011;32646;50.958;6.258;2023-07-13T06:12:31;6.63;;;1.55;;
46897;SDS011;32646;50.958;6.258;2023-07-13T06:14:57;7.97;;;2.08;;
46897;SDS011;32646;50.958;6.258;2023-07-13T06:17:24;5.70;;;1.80;;
46897;SDS011;32646;50.958;6.258;2023-07-13T06:19:51;7.78;;;2.20;;
46897;SDS011;32646;50.958;6.258;2023-07-13T06:22:17;4.78;;;1.30;;
46897;SDS011;32646;50.958;6.258;2023-07-13T06:24:44;6.80;;;1.80;;
46897;SDS011;32646;50.958;6.258;2023-07-13T06:27:10;8.63;;;2.35;;
46897;SDS011;32646;50.958;6.258;2023-07-13T06:29:37;9.00;;;1.75;;
46897;SDS011;32646;50.958;6.258;2023-07-13T06:32:04;9.48;;;1.95;;
46897;SDS011;32646;50.958;6.258;2023-07-13T06:34:31;5.10;;;1.45;;
46897;SDS011;32646;50.958;6.258;2023-07-13T06:36:57;8.85;;;1.67;;
46897;SDS011;32646;50.958;6.258;2023-07-13T06:39:24;3.95;;;1.48;;
46897;SDS011;32646;50.958;6.258;2023-07-13T06:41:50;5.28;;;1.60;;
46897;SDS011;32646;50.958;6.258;2023-07-13T06:44:17;6.55;;;2.15;;
46897;SDS011;32646;50.958;6.258;2023-07-13T06:46:44;7.78;;;2.00;;
46897;SDS011;32646;50.958;6.258;2023-07-13T06:49:10;7.05;;;1.58;;
46897;SDS011;32646;50.958;6.258;2023-07-13T06:51:37;10.52;;;2.13;;
46897;SDS011;32646;50.958;6.258;2023-07-13T06:54:03;5.40;;;1.52;;
46897;SDS011;32646;50.958;6.258;2023-07-13T06:56:30;6.63;;;2.33;;
46897;SDS011;32646;50.958;6.258;2023-07-13T06:58:57;5.47;;;1.80;;
46897;SDS011;32646;50.958;6.258;2023-07-13T07:01:23;11.32;;;2.28;;
46897;SDS011;32646;50.958;6.258;2023-07-13T07:03:50;8.38;;;1.80;;
46897;SDS011;32646;50.958;6.258;2023-07-13T07:06:17;5.85;;;1.90;;
46897;SDS011;32646;50.958;6.258;2023-07-13T07:08:48;8.60;;;2.10;;
46897;SDS011;32646;50.958;6.258;2023-07-13T07:11:19;8.32;;;1.83;;
46897;SDS011;32646;50.958;6.258;2023-07-13T07:13:48;5.70;;;2.22;;
46897;SDS011;32646;50.958;6.258;2023-07-13T07:16:15;5.78;;;1.65;;
46897;SDS011;32646;50.958;6.258;2023-07-13T07:18:42;4.90;;;1.83;;
46897;SDS011;32646;50.958;6.258;2023-07-13T07:21:08;7.75;;;2.25;;
46897;SDS011;32646;50.958;6.258;2023-07-13T07:23:36;4.35;;;1.58;;
46897;SDS011;32646;50.958;6.258;2023-07-13T07:26:03;6.82;;;1.75;;
46897;SDS011;32646;50.958;6.258;2023-07-13T07:28:30;8.18;;;2.08;;
46897;SDS011;32646;50.958;6.258;2023-07-13T07:30:59;7.10;;;2.67;;
46897;SDS011;32646;50.958;6.258;2023-07-13T07:35:55;8.80;;;1.85;;
46897;SDS011;32646;50.958;6.258;2023-07-13T07:38:25;7.55;;;2.20;;
46897;SDS011;32646;50.958;6.258;2023-07-13T07:40:52;8.10;;;1.75;;
46897;SDS011;32646;50.958;6.258;2023-07-13T07:43:22;7.10;;;1.85;;
46897;SDS011;32646;50.958;6.258;2023-07-13T07:45:48;4.85;;;1.88;;
46897;SDS011;32646;50.958;6.258;2023-07-13T07:48:15;6.65;;;2.15;;
46897;SDS011;32646;50.958;6.258;2023-07-13T07:50:41;7.40;;;1.80;;
46897;SDS011;32646;50.958;6.258;2023-07-13T07:53:08;7.80;;;2.17;;
46897;SDS011;32646;50.958;6.258;2023-07-13T07:55:36;10.98;;;2.13;;
46897;SDS011;32646;50.958;6.258;2023-07-13T07:58:06;6.93;;;1.92;;
46897;SDS011;32646;50.958;6.258;2023-07-13T08:00:53;4.13;;;1.58;;
46897;SDS011;32646;50.958;6.258;2023-07-13T08:05:54;4.63;;;1.98;;
46897;SDS011;32646;50.958;6.258;2023-07-13T08:08:24;6.82;;;1.60;;
46897;SDS011;32646;50.958;6.258;2023-07-13T08:10:51;7.65;;;1.85;;
46897;SDS011;32646;50.958;6.258;2023-07-13T08:13:23;7.88;;;2.38;;
46897;SDS011;32646;50.958;6.258;2023-07-13T08:15:50;5.20;;;1.55;;
46897;SDS011;32646;50.958;6.258;2023-07-13T08:18:16;6.10;;;1.83;;
46897;SDS011;32646;50.958;6.258;2023-07-13T08:20:43;4.63;;;1.60;;
46897;SDS011;32646;50.958;6.258;2023-07-13T08:23:10;4.85;;;1.55;;
46897;SDS011;32646;50.958;6.258;2023-07-13T08:25:36;7.63;;;2.20;;
46897;SDS011;32646;50.958;6.258;2023-07-13T08:28:03;7.47;;;2.20;;
46897;SDS011;32646;50.958;6.258;2023-07-13T08:30:30;5.20;;;1.73;;
46897;SDS011;32646;50.958;6.258;2023-07-13T08:32:57;7.50;;;1.88;;
46897;SDS011;32646;50.958;6.258;2023-07-13T08:35:23;4.22;;;1.50;;
46897;SDS011;32646;50.958;6.258;2023-07-13T08:37:50;8.57;;;2.22;;
46897;SDS011;32646;50.958;6.258;2023-07-13T08:40:17;5.30;;;1.75;;
46897;SDS011;32646;50.958;6.258;2023-07-13T08:42:53;6.15;;;2.00;;
46897;SDS011;32646;50.958;6.258;2023-07-13T08:48:03;7.60;;;1.70;;
46897;SDS011;32646;50.958;6.258;2023-07-13T08:50:46;6.40;;;1.70;;
46897;SDS011;32646;50.958;6.258;2023-07-13T08:53:30;5.28;;;2.05;;
46897;SDS011;32646;50.958;6.258;2023-07-13T08:56:27;6.97;;;1.83;;
46897;SDS011;32646;50.958;6.258;2023-07-13T08:58:56;4.68;;;1.48;;
46897;SDS011;32646;50.958;6.258;2023-07-13T09:04:21;6.20;;;1.80;;
46897;SDS011;32646;50.958;6.258;2023-07-13T09:06:58;6.10;;;1.70;;
46897;SDS011;32646;50.958;6.258;2023-07-13T09:12:48;6.18;;;1.50;;
46897;SDS011;32646;50.958;6.258;2023-07-13T09:15:32;5.68;;;1.63;;
46897;SDS011;32646;50.958;6.258;2023-07-13T09:18:45;6.60;;;1.50;;
46897;SDS011;32646;50.958;6.258;2023-07-13T09:21:02;5.60;;;2.13;;
46897;SDS011;32646;50.958;6.258;2023-07-13T09:23:34;4.68;;;1.80;;
46897;SDS011;32646;50.958;6.258;2023-07-13T09:26:07;5.07;;;1.58;;
46897;SDS011;32646;50.958;6.258;2023-07-13T09:28:43;4.43;;;1.70;;
46897;SDS011;32646;50.958;6.258;2023-07-13T09:31:23;8.80;;;1.90;;
46897;SDS011;32646;50.958;6.258;2023-07-13T09:33:56;4.50;;;1.45;;
46897;SDS011;32646;50.958;6.258;2023-07-13T09:36:25;5.30;;;1.40;;
46897;SDS011;32646;50.958;6.258;2023-07-13T09:41:41;6.07;;;1.50;;
46897;SDS011;32646;50.958;6.258;2023-07-13T09:47:00;4.75;;;1.58;;
46897;SDS011;32646;50.958;6.258;2023-07-13T09:49:28;5.82;;;1.73;;
46897;SDS011;32646;50.958;6.258;2023-07-13T09:52:00;6.85;;;1.85;;
46897;SDS011;32646;50.958;6.258;2023-07-13T09:54:33;5.72;;;1.60;;
46897;SDS011;32646;50.958;6.258;2023-07-13T09:57:01;14.15;;;1.60;;
46897;SDS011;32646;50.958;6.258;2023-07-13T09:59:35;6.85;;;1.40;;
46897;SDS011;32646;50.958;6.258;2023-07-13T10:04:58;7.93;;;1.50;;
46897;SDS011;32646;50.958;6.258;2023-07-13T10:07:51;6.32;;;1.58;;
46897;SDS011;32646;50.958;6.258;2023-07-13T10:10:18;4.68;;;1.50;;
46897;SDS011;32646;50.958;6.258;2023-07-13T10:12:47;4.70;;;1.30;;
46897;SDS011;32646;50.958;6.258;2023-07-13T10:15:16;7.15;;;1.63;;
46897;SDS011;32646;50.958;6.258;2023-07-13T10:17:50;5.38;;;1.73;;
46897;SDS011;32646;50.958;6.258;2023-07-13T10:20:18;5.47;;;1.45;;
46897;SDS011;32646;50.958;6.258;2023-07-13T10:25:27;3.53;;;1.20;;
46897;SDS011;32646;50.958;6.258;2023-07-13T10:30:38;4.50;;;1.13;;
46897;SDS011;32646;50.958;6.258;2023-07-13T10:33:10;4.35;;;1.30;;
46897;SDS011;32646;50.958;6.258;2023-07-13T10:35:39;5.45;;;1.30;;
46897;SDS011;32646;50.958;6.258;2023-07-13T10:38:13;5.13;;;1.05;;
46897;SDS011;32646;50.958;6.258;2023-07-13T10:40:46;5.65;;;1.45;;
46897;SDS011;32646;50.958;6.258;2023-07-13T10:43:28;5.88;;;1.50;;
46897;SDS011;32646;50.958;6.258;2023-07-13T10:46:10;4.80;;;1.35;;
46897;SDS011;32646;50.958;6.258;2023-07-13T10:48:40;4.88;;;1.23;;
46897;SDS011;32646;50.958;6.258;2023-07-13T10:51:10;4.03;;;1.30;;
46897;SDS011;32646;50.958;6.258;2023-07-13T10:53:39;5.65;;;1.40;;
46897;SDS011;32646;50.958;6.258;2023-07-13T10:56:19;4.85;;;1.55;;
46897;SDS011;32646;50.958;6.258;2023-07-13T11:01:39;4.15;;;1.23;;
46897;SDS011;32646;50.958;6.258;2023-07-13T11:04:15;5.80;;;1.50;;
46897;SDS011;32646;50.958;6.258;2023-07-13T11:06:42;5.28;;;1.40;;
46897;SDS011;32646;50.958;6.258;2023-07-13T11:12:02;4.07;;;1.10;;
46897;SDS011;32646;50.958;6.258;2023-07-13T11:14:38;5.55;;;1.30;;
46897;SDS011;32646;50.958;6.258;2023-07-13T11:27:51;4.32;;;0.85;;
46897;SDS011;32646;50.958;6.258;2023-07-13T11:30:40;4.65;;;1.05;;
46897;SDS011;32646;50.958;6.258;2023-07-13T11:38:36;5.20;;;1.10;;
46897;SDS011;32646;50.958;6.258;2023-07-13T11:41:05;2.55;;;0.70;;
46897;SDS011;32646;50.958;6.258;2023-07-13T11:43:42;6.55;;;1.52;;
46897;SDS011;32646;50.958;6.258;2023-07-13T11:46:13;5.20;;;1.13;;
46897;SDS011;32646;50.958;6.258;2023-07-13T11:48:48;4.05;;;1.10;;
46897;SDS011;32646;50.958;6.258;2023-07-13T11:51:19;4.35;;;1.27;;
46897;SDS011;32646;50.958;6.258;2023-07-13T11:53:51;4.30;;;1.10;;
46897;SDS011;32646;50.958;6.258;2023-07-13T11:56:23;6.07;;;1.40;;
46897;SDS011;32646;50.958;6.258;2023-07-13T11:58:51;3.55;;;1.08;;
46897;SDS011;32646;50.958;6.258;2023-07-13T12:01:22;4.45;;;1.27;;
46897;SDS011;32646;50.958;6.258;2023-07-13T12:03:51;3.90;;;1.20;;
46897;SDS011;32646;50.958;6.258;2023-07-13T12:06:29;3.30;;;1.00;;
46897;SDS011;32646;50.958;6.258;2023-07-13T12:09:02;4.50;;;1.00;;
46897;SDS011;32646;50.958;6.258;2023-07-13T12:11:35;2.97;;;1.25;;
46897;SDS011;32646;50.958;6.258;2023-07-13T12:14:11;4.03;;;1.00;;
46897;SDS011;32646;50.958;6.258;2023-07-13T12:16:42;3.47;;;0.95;;
46897;SDS011;32646;50.958;6.258;2023-07-13T12:19:15;4.40;;;1.00;;
46897;SDS011;32646;50.958;6.258;2023-07-13T12:21:45;4.43;;;1.15;;
46897;SDS011;32646;50.958;6.258;2023-07-13T12:24:19;2.72;;;0.80;;
46897;SDS011;32646;50.958;6.258;2023-07-13T12:27:05;2.83;;;0.88;;
46897;SDS011;32646;50.958;6.258;2023-07-13T12:29:48;4.55;;;1.38;;
46897;SDS011;32646;50.958;6.258;2023-07-13T12:32:17;5.10;;;1.42;;
46897;SDS011;32646;50.958;6.258;2023-07-13T12:34:54;3.45;;;0.90;;
46897;SDS011;32646;50.958;6.258;2023-07-13T12:37:27;3.38;;;0.80;;
46897;SDS011;32646;50.958;6.258;2023-07-13T12:39:53;4.13;;;1.00;;
46897;SDS011;32646;50.958;6.258;2023-07-13T12:42:27;3.15;;;0.75;;
46897;SDS011;32646;50.958;6.258;2023-07-13T12:45:00;2.90;;;0.80;;
46897;SDS011;32646;50.958;6.258;2023-07-13T12:47:30;3.38;;;0.80;;
46897;SDS011;32646;50.958;6.258;2023-07-13T12:50:14;4.82;;;1.33;;
46897;SDS011;32646;50.958;6.258;2023-07-13T12:52:44;2.78;;;0.90;;
46897;SDS011;32646;50.958;6.258;2023-07-13T12:55:18;2.30;;;0.80;;
46897;SDS011;32646;50.958;6.258;2023-07-13T12:57:52;3.03;;;0.80;;
46897;SDS011;32646;50.958;6.258;2023-07-13T13:02:56;4.35;;;1.00;;
46897;SDS011;32646;50.958;6.258;2023-07-13T13:05:41;3.50;;;1.08;;
46897;SDS011;32646;50.958;6.258;2023-07-13T13:08:09;3.72;;;1.27;;
46897;SDS011;32646;50.958;6.258;2023-07-13T13:10:37;3.65;;;1.23;;
46897;SDS011;32646;50.958;6.258;2023-07-13T13:13:04;3.80;;;1.25;;
46897;SDS011;32646;50.958;6.258;2023-07-13T13:15:30;3.55;;;1.20;;
46897;SDS011;32646;50.958;6.258;2023-07-13T13:17:57;8.90;;;1.63;;
46897;SDS011;32646;50.958;6.258;2023-07-13T13:20:24;3.10;;;1.00;;
46897;SDS011;32646;50.958;6.258;2023-07-13T13:22:51;4.82;;;1.15;;
46897;SDS011;32646;50.958;6.258;2023-07-13T13:25:18;4.93;;;1.10;;
46897;SDS011;32646;50.958;6.258;2023-07-13T13:27:45;3.72;;;0.90;;
46897;SDS011;32646;50.958;6.258;2023-07-13T13:30:12;4.45;;;1.13;;
46897;SDS011;32646;50.958;6.258;2023-07-13T13:32:40;5.22;;;1.25;;
46897;SDS011;32646;50.958;6.258;2023-07-13T13:35:18;3.33;;;0.95;;
46897;SDS011;32646;50.958;6.258;2023-07-13T13:37:46;3.95;;;1.10;;
46897;SDS011;32646;50.958;6.258;2023-07-13T13:42:42;3.53;;;1.27;;
46897;SDS011;32646;50.958;6.258;2023-07-13T13:45:11;2.88;;;0.85;;
46897;SDS011;32646;50.958;6.258;2023-07-13T13:47:38;3.53;;;0.95;;
46897;SDS011;32646;50.958;6.258;2023-07-13T13:50:13;2.47;;;0.95;;
46897;SDS011;32646;50.958;6.258;2023-07-13T13:52:43;3.08;;;1.00;;
46897;SDS011;32646;50.958;6.258;2023-07-13T13:57:40;3.80;;;1.33;;
46897;SDS011;32646;50.958;6.258;2023-07-13T14:00:10;3.88;;;1.17;;
46897;SDS011;32646;50.958;6.258;2023-07-13T14:02:37;4.07;;;0.90;;
46897;SDS011;32646;50.958;6.258;2023-07-13T14:05:05;5.85;;;1.10;;
46897;SDS011;32646;50.958;6.258;2023-07-13T14:07:35;2.90;;;1.05;;
46897;SDS011;32646;50.958;6.258;2023-07-13T14:10:08;5.32;;;1.17;;
46897;SDS011;32646;50.958;6.258;2023-07-13T14:12:38;4.30;;;1.10;;
46897;SDS011;32646;50.958;6.258;2023-07-13T14:15:05;4.85;;;1.20;;
46897;SDS011;32646;50.958;6.258;2023-07-13T14:17:32;3.85;;;1.15;;
46897;SDS011;32646;50.958;6.258;2023-07-13T14:20:02;4.25;;;1.23;;
46897;SDS011;32646;50.958;6.258;2023-07-13T14:22:29;7.45;;;0.95;;
46897;SDS011;32646;50.958;6.258;2023-07-13T14:24:55;4.13;;;1.00;;
46897;SDS011;32646;50.958;6.258;2023-07-13T14:27:22;3.22;;;1.08;;
46897;SDS011;32646;50.958;6.258;2023-07-13T14:29:50;2.53;;;0.70;;
46897;SDS011;32646;50.958;6.258;2023-07-13T14:32:17;2.92;;;0.73;;
46897;SDS011;32646;50.958;6.258;2023-07-13T14:34:43;3.97;;;0.85;;
46897;SDS011;32646;50.958;6.258;2023-07-13T14:37:12;3.33;;;0.95;;
46897;SDS011;32646;50.958;6.258;2023-07-13T14:39:40;3.42;;;0.98;;
46897;SDS011;32646;50.958;6.258;2023-07-13T14:42:10;2.53;;;0.88;;
46897;SDS011;32646;50.958;6.258;2023-07-13T14:44:37;2.63;;;0.95;;
46897;SDS011;32646;50.958;6.258;2023-07-13T14:47:05;2.97;;;0.93;;
46897;SDS011;32646;50.958;6.258;2023-07-13T14:49:34;2.45;;;0.80;;
46897;SDS011;32646;50.958;6.258;2023-07-13T14:52:05;2.50;;;0.88;;
46897;SDS011;32646;50.958;6.258;2023-07-13T14:54:40;4.75;;;1.30;;
46897;SDS011;32646;50.958;6.258;2023-07-13T14:57:14;4.85;;;1.00;;
46897;SDS011;32646;50.958;6.258;2023-07-13T15:02:15;3.90;;;1.30;;
46897;SDS011;32646;50.958;6.258;2023-07-13T15:04:44;6.10;;;1.50;;
46897;SDS011;32646;50.958;6.258;2023-07-13T15:07:11;3.25;;;0.98;;
46897;SDS011;32646;50.958;6.258;2023-07-13T15:09:38;3.53;;;1.15;;
46897;SDS011;32646;50.958;6.258;2023-07-13T15:12:05;4.82;;;1.00;;
46897;SDS011;32646;50.958;6.258;2023-07-13T15:14:32;7.53;;;1.30;;
46897;SDS011;32646;50.958;6.258;2023-07-13T15:16:59;6.15;;;1.25;;
46897;SDS011;32646;50.958;6.258;2023-07-13T15:19:26;4.43;;;1.38;;
46897;SDS011;32646;50.958;6.258;2023-07-13T15:21:54;3.78;;;1.33;;
46897;SDS011;32646;50.958;6.258;2023-07-13T15:24:22;3.35;;;1.00;;
46897;SDS011;32646;50.958;6.258;2023-07-13T15:26:48;3.53;;;1.10;;
46897;SDS011;32646;50.958;6.258;2023-07-13T15:29:15;3.00;;;1.10;;
46897;SDS011;32646;50.958;6.258;2023-07-13T15:31:42;3.80;;;1.05;;
46897;SDS011;32646;50.958;6.258;2023-07-13T15:34:10;5.53;;;1.48;;
46897;SDS011;32646;50.958;6.258;2023-07-13T15:36:39;7.85;;;1.75;;
46897;SDS011;32646;50.958;6.258;2023-07-13T15:39:06;4.07;;;1.40;;
46897;SDS011;32646;50.958;6.258;2023-07-13T15:41:33;4.38;;;1.27;;
46897;SDS011;32646;50.958;6.258;2023-07-13T15:44:00;3.90;;;1.30;;
46897;SDS011;32646;50.958;6.258;2023-07-13T15:46:30;3.58;;;1.50;;
46897;SDS011;32646;50.958;6.258;2023-07-13T15:48:57;6.88;;;1.50;;
46897;SDS011;32646;50.958;6.258;2023-07-13T15:51:25;3.45;;;1.17;;
46897;SDS011;32646;50.958;6.258;2023-07-13T15:53:54;4.03;;;1.33;;
46897;SDS011;32646;50.958;6.258;2023-07-13T15:56:27;2.83;;;1.10;;
46897;SDS011;32646;50.958;6.258;2023-07-13T15:58:55;3.08;;;1.30;;
46897;SDS011;32646;50.958;6.258;2023-07-13T16:01:23;4.60;;;1.13;;
46897;SDS011;32646;50.958;6.258;2023-07-13T16:03:50;3.88;;;1.27;;